Darstellungsparameter: Aktuell verwendete Einstellungen:
Skalierung der Graphiken ... ?
xyx+y,   Skalierungsfaktor:      Skalierung: Modus: x, Faktor: 1
Darstellungszeitraum ... ?
Vom - - bis: - -   Zeitraum: 23.04.2019 - 29.04.2019
Min/Max/Avg-Anzeige ... ?
Zeige MMA aktuell
Zeige MMA Monat
Zeige MMA alles
Zeige --A aktuell
Zeige --A Monat
Zeige --A alles
Keine MMA-Anzeige
MMA:
Average (ber die Originaldaten)
MMA-Basis: 23.04.2019 - 29.04.2019
Quicknavigation für Darstellung... ?
Tage:      1T, 2T, 3T, 5T -1T -2T -3T -5T +1T +2T +3T +5T
Wochen: 1W, 2W, 3W -1W -2W -3W +1W +2W +3W
Monate: 1M, 3M, 6M -1M -3M -6M +1M +3M +6M
Jahre:    1J, 3J, 5J, 10J -1J -3J -5J -10J +1J +3J +5J +10J
Nutze für die Darstellung ... ?
Originaldaten oder ...
Mittelwerte Minima Maxima auf...
Stundenbasis Tagesbasis Wochenbasis
Monatsbasis Jahresbasis      Datenbasis: Mittelwerte auf Stundenbasis
Darstellen als:
Statistik (Auto) Statistik J:M      Darstellung:
Zur Graphik,    zurück zur Übersicht aller Sensoren.
 
Tabellarische Datenbersicht: ?
 
Sensor: Nr:Datum:Temp:Abs-Feuchte:Windchill:Wind:
Aussen-T/F 1 23-04-2019 00:00:00 13.175 C 6.4 g/m*3 13.18 C 2.13333 km/h
2 23-04-2019 01:00:00 11.55 C 6.45 g/m*3 11.55 C 0.53333 km/h
3 23-04-2019 02:00:00 10.31667 C 6.42 g/m*3 10.32 C 0.66667 km/h
4 23-04-2019 03:00:00 9.7 C 6.31 g/m*3 9.7 C 0 km/h
5 23-04-2019 04:00:00 9.15833 C 6.39 g/m*3 9.16 C 0 km/h
6 23-04-2019 05:00:00 8.83333 C 6.38 g/m*3 8.83 C 0 km/h
7 23-04-2019 06:00:00 8.31667 C 6.41 g/m*3 8.32 C 0 km/h
8 23-04-2019 07:00:00 8.99167 C 6.81 g/m*3 8.99 C 0 km/h
9 23-04-2019 08:00:00 10.325 C 7.31 g/m*3 10.33 C 0 km/h
10 23-04-2019 09:00:00 12.53333 C 7.04 g/m*3 12.53 C 7.94167 km/h
11 23-04-2019 10:00:00 14.025 C 7.28 g/m*3 14.03 C 9.95833 km/h
12 23-04-2019 11:00:00 15.475 C 7.58 g/m*3 15.48 C 12.76667 km/h
13 23-04-2019 12:00:00 17.04167 C 8.01 g/m*3 17.04 C 11.56667 km/h
14 23-04-2019 13:00:00 18.89167 C 8.29 g/m*3 18.89 C 14.36667 km/h
15 23-04-2019 14:00:00 20.44167 C 8.5 g/m*3 20.44 C 13.16667 km/h
16 23-04-2019 15:00:00 21.76667 C 8.55 g/m*3 21.77 C 14.76667 km/h
17 23-04-2019 16:00:00 23.1 C 8.79 g/m*3 23.1 C 10.875 km/h
18 23-04-2019 17:00:00 23.4 C 8.97 g/m*3 23.4 C 8.475 km/h
19 23-04-2019 18:00:00 21.775 C 8.86 g/m*3 21.78 C 7.91667 km/h
20 23-04-2019 19:00:00 20.31667 C 9.21 g/m*3 20.32 C 2.93333 km/h
21 23-04-2019 20:00:00 17.975 C 9.41 g/m*3 17.98 C 0.53333 km/h
22 23-04-2019 21:00:00 16.08333 C 9.45 g/m*3 16.08 C 0.13333 km/h
23 23-04-2019 22:00:00 15.54167 C 9.44 g/m*3 15.54 C 0 km/h
24 23-04-2019 23:00:00 15.08333 C 9.3 g/m*3 15.08 C 0 km/h
25 24-04-2019 00:00:00 14.425 C 9.31 g/m*3 14.43 C 0 km/h
Sensor: Nr:Datum:Temp:Abs-Feuchte:Windchill:Wind:
Aussen-T/F 26 24-04-2019 01:00:00 12.65833 C 8.71 g/m*3 12.66 C 0 km/h
27 24-04-2019 02:00:00 11.325 C 8.48 g/m*3 11.33 C 0 km/h
28 24-04-2019 03:00:00 10.39167 C 8.33 g/m*3 10.39 C 0 km/h
29 24-04-2019 04:00:00 9.89167 C 8.28 g/m*3 9.89 C 0 km/h
30 24-04-2019 05:00:00 9.35 C 8.12 g/m*3 9.35 C 0 km/h
31 24-04-2019 06:00:00 9.1 C 8.13 g/m*3 9.1 C 0.26667 km/h
32 24-04-2019 07:00:00 9.66667 C 8.51 g/m*3 9.67 C 0 km/h
33 24-04-2019 08:00:00 11.55833 C 9.01 g/m*3 11.56 C 0 km/h
34 24-04-2019 09:00:00 13.39167 C 9.57 g/m*3 13.39 C 0 km/h
35 24-04-2019 10:00:00 16.14167 C 10.2 g/m*3 16.14 C 0 km/h
36 24-04-2019 11:00:00 18.73333 C 10.71 g/m*3 18.73 C 1.74167 km/h
37 24-04-2019 12:00:00 21.425 C 9.5 g/m*3 21.43 C 9.14167 km/h
38 24-04-2019 13:00:00 22.38333 C 9.03 g/m*3 22.38 C 9.14167 km/h
39 24-04-2019 14:00:00 23.45 C 9.01 g/m*3 23.45 C 6.05 km/h
40 24-04-2019 15:00:00 24.80833 C 8.88 g/m*3 24.81 C 6.56667 km/h
41 24-04-2019 16:00:00 25.20833 C 9.14 g/m*3 25.21 C 6.15833 km/h
42 24-04-2019 17:00:00 25.675 C 9.78 g/m*3 25.68 C 6.16667 km/h
43 24-04-2019 18:00:00 19.91667 C 9.77 g/m*3 19.92 C 24.66667 km/h
44 24-04-2019 19:00:00 13.875 C 9.24 g/m*3 13.88 C 28.94167 km/h
45 24-04-2019 20:00:00 11.34167 C 8.8 g/m*3 11.34 C 16.225 km/h
46 24-04-2019 21:00:00 9.85 C 8.55 g/m*3 9.85 C 1.86667 km/h
47 24-04-2019 22:00:00 9.16667 C 8.33 g/m*3 9.17 C 0 km/h
48 24-04-2019 23:00:00 9.00833 C 8.37 g/m*3 9.01 C 0 km/h
49 25-04-2019 00:00:00 8.85833 C 8.3 g/m*3 8.86 C 0.4 km/h
50 25-04-2019 01:00:00 8.125 C 7.92 g/m*3 8.13 C 0.66667 km/h
Sensor: Nr:Datum:Temp:Abs-Feuchte:Windchill:Wind:
Aussen-T/F 51 25-04-2019 02:00:00 7.45 C 7.6 g/m*3 7.45 C 0 km/h
52 25-04-2019 03:00:00 7.2 C 7.54 g/m*3 7.2 C 0 km/h
53 25-04-2019 04:00:00 7.05833 C 7.47 g/m*3 7.06 C 0 km/h
54 25-04-2019 05:00:00 7.10833 C 7.49 g/m*3 7.11 C 0 km/h
55 25-04-2019 06:00:00 7.05833 C 7.53 g/m*3 7.06 C 0.4 km/h
56 25-04-2019 07:00:00 7.85833 C 7.95 g/m*3 7.86 C 0.53333 km/h
57 25-04-2019 08:00:00 9.16667 C 8.64 g/m*3 9.17 C 3.06667 km/h
58 25-04-2019 09:00:00 10.63333 C 9.49 g/m*3 10.63 C 0.13333 km/h
59 25-04-2019 10:00:00 11.54167 C 9.93 g/m*3 11.54 C 1.75 km/h
60 25-04-2019 11:00:00 14.14167 C 9.69 g/m*3 14.14 C 8.06667 km/h
61 25-04-2019 12:00:00 16.96667 C 9.24 g/m*3 16.97 C 8.60833 km/h
62 25-04-2019 13:00:00 18.6 C 9.35 g/m*3 18.6 C 8.61667 km/h
63 25-04-2019 14:00:00 20.25833 C 9.3 g/m*3 20.26 C 7.39167 km/h
64 25-04-2019 15:00:00 21.525 C 9.32 g/m*3 21.53 C 8.19167 km/h
65 25-04-2019 16:00:00 22.125 C 10.75 g/m*3 22.13 C 3.21667 km/h
66 25-04-2019 17:00:00 21.35 C 11.08 g/m*3 21.35 C 6.725 km/h
67 25-04-2019 18:00:00 20.55833 C 9.8 g/m*3 20.56 C 13.95833 km/h
68 25-04-2019 19:00:00 16.88333 C 8.82 g/m*3 16.88 C 17.45 km/h
69 25-04-2019 20:00:00 15.125 C 8.62 g/m*3 15.13 C 12.61667 km/h
70 25-04-2019 21:00:00 13.85 C 8.64 g/m*3 13.85 C 7.125 km/h
71 25-04-2019 22:00:00 13.04167 C 8.49 g/m*3 13.04 C 2.4 km/h
72 25-04-2019 23:00:00 12.425 C 8.57 g/m*3 12.43 C 0 km/h
73 26-04-2019 00:00:00 11.39167 C 8.43 g/m*3 11.39 C 0 km/h
74 26-04-2019 01:00:00 10.93333 C 8.5 g/m*3 10.93 C 0 km/h
75 26-04-2019 02:00:00 11.00833 C 8.44 g/m*3 11.01 C 0 km/h
Sensor: Nr:Datum:Temp:Abs-Feuchte:Windchill:Wind:
Aussen-T/F 76 26-04-2019 03:00:00 10.98333 C 8.31 g/m*3 10.98 C 0 km/h
77 26-04-2019 04:00:00 10.8 C 8.27 g/m*3 10.8 C 2.80833 km/h
78 26-04-2019 05:00:00 10.4 C 8.38 g/m*3 10.4 C 2.80833 km/h
79 26-04-2019 06:00:00 9.625 C 8.44 g/m*3 9.63 C 0.93333 km/h
80 26-04-2019 07:00:00 9.5 C 8.55 g/m*3 9.5 C 0.93333 km/h
81 26-04-2019 08:00:00 9.50833 C 8.62 g/m*3 9.51 C 0.8 km/h
82 26-04-2019 09:00:00 9.99167 C 8.92 g/m*3 9.99 C 3.08333 km/h
83 26-04-2019 10:00:00 10.275 C 9.08 g/m*3 10.28 C 3.48333 km/h
84 26-04-2019 11:00:00 10.88333 C 9.29 g/m*3 10.88 C 4.55833 km/h
85 26-04-2019 12:00:00 11.95833 C 9.42 g/m*3 11.96 C 8.73333 km/h
86 26-04-2019 13:00:00 13.00833 C 9.36 g/m*3 13.01 C 9.68333 km/h
87 26-04-2019 14:00:00 13.53333 C 9.16 g/m*3 13.53 C 10.9 km/h
88 26-04-2019 15:00:00 13.525 C 8.98 g/m*3 13.53 C 9 km/h
89 26-04-2019 16:00:00 15.06667 C 9.1 g/m*3 15.07 C 8.74167 km/h
90 26-04-2019 17:00:00 15.74167 C 8.85 g/m*3 15.74 C 6.025 km/h
91 26-04-2019 18:00:00 16.925 C 8.93 g/m*3 16.93 C 3.60833 km/h
92 26-04-2019 19:00:00 15.84167 C 9.71 g/m*3 15.84 C 0 km/h
93 26-04-2019 20:00:00 12.575 C 8.92 g/m*3 12.58 C 7.89167 km/h
94 26-04-2019 21:00:00 10.89167 C 8.66 g/m*3 10.89 C 2.13333 km/h
95 26-04-2019 22:00:00 10.45833 C 8.59 g/m*3 10.46 C 0 km/h
96 26-04-2019 23:00:00 10.00833 C 8.49 g/m*3 10.01 C 0 km/h
97 27-04-2019 00:00:00 9.20833 C 8.21 g/m*3 9.21 C 0 km/h
98 27-04-2019 01:00:00 9.14167 C 8.27 g/m*3 9.14 C 0 km/h
99 27-04-2019 02:00:00 8.575 C 7.99 g/m*3 8.57 C 0.26667 km/h
100 27-04-2019 03:00:00 7.875 C 7.71 g/m*3 7.88 C 0 km/h
Sensor: Nr:Datum:Temp:Abs-Feuchte:Windchill:Wind:
Aussen-T/F 101 27-04-2019 04:00:00 7.18333 C 7.39 g/m*3 7.18 C 0 km/h
102 27-04-2019 05:00:00 6.64167 C 7.18 g/m*3 6.64 C 0 km/h
103 27-04-2019 06:00:00 6.425 C 7.12 g/m*3 6.43 C 0 km/h
104 27-04-2019 07:00:00 7.15 C 7.51 g/m*3 7.15 C 0 km/h
105 27-04-2019 08:00:00 8.66667 C 8.36 g/m*3 8.67 C 0 km/h
106 27-04-2019 09:00:00 10.16667 C 9.01 g/m*3 10.17 C 1.33333 km/h
107 27-04-2019 10:00:00 11.30833 C 8.95 g/m*3 11.31 C 3.075 km/h
108 27-04-2019 11:00:00 12.64167 C 8.49 g/m*3 12.64 C 11.14167 km/h
109 27-04-2019 12:00:00 12.69167 C 9.08 g/m*3 12.69 C 9.29167 km/h
110 27-04-2019 13:00:00 13.025 C 8.85 g/m*3 13.03 C 14.90833 km/h
111 27-04-2019 14:00:00 9.525 C 8.21 g/m*3 8.62 C 7.24167 km/h
112 27-04-2019 15:00:00 10.46667 C 8.71 g/m*3 10.47 C 3.475 km/h
113 27-04-2019 16:00:00 11.75 C 8.58 g/m*3 11.75 C 6.85 km/h
114 27-04-2019 17:00:00 12.35 C 8.56 g/m*3 12.35 C 6.84167 km/h
115 27-04-2019 18:00:00 11.34167 C 8.22 g/m*3 11.34 C 5.89167 km/h
116 27-04-2019 19:00:00 9.55833 C 8.23 g/m*3 8.92 C 6.16667 km/h
117 27-04-2019 20:00:00 7.725 C 7.49 g/m*3 7.73 C 3.33333 km/h
118 27-04-2019 21:00:00 7.3 C 7.41 g/m*3 7.3 C 0.8 km/h
119 27-04-2019 22:00:00 6.76667 C 7.22 g/m*3 6.77 C 1.33333 km/h
120 27-04-2019 23:00:00 6.84167 C 7.28 g/m*3 6.84 C 4.55833 km/h
121 28-04-2019 00:00:00 6.86667 C 7.2 g/m*3 6.87 C 4.15 km/h
122 28-04-2019 01:00:00 6.875 C 7.09 g/m*3 5.87 C 6.025 km/h
123 28-04-2019 02:00:00 6.43333 C 6.8 g/m*3 5.45 C 5.76667 km/h
124 28-04-2019 03:00:00 6.19167 C 6.63 g/m*3 5 C 6.30833 km/h
125 28-04-2019 04:00:00 6.41667 C 6.58 g/m*3 4.26 C 10.475 km/h
Sensor: Nr:Datum:Temp:Abs-Feuchte:Windchill:Wind:
Aussen-T/F 126 28-04-2019 05:00:00 6.26667 C 6.55 g/m*3 4.13 C 10.20833 km/h
127 28-04-2019 06:00:00 6.2 C 6.53 g/m*3 4.7 C 7.39167 km/h
128 28-04-2019 07:00:00 6.80833 C 6.75 g/m*3 5.45 C 7.25833 km/h
129 28-04-2019 08:00:00 7.575 C 6.92 g/m*3 6.24 C 7.65833 km/h
130 28-04-2019 09:00:00 7.93333 C 7.13 g/m*3 7.93 C 4.28333 km/h
131 28-04-2019 10:00:00 8.90833 C 7.27 g/m*3 8.18 C 6.15 km/h
132 28-04-2019 11:00:00 10 C 6.98 g/m*3 8.42 C 11.3 km/h
133 28-04-2019 12:00:00 10.325 C 6.77 g/m*3 9.12 C 9.39167 km/h
134 28-04-2019 13:00:00 11.3 C 6.83 g/m*3 11.3 C 8.61667 km/h
135 28-04-2019 14:00:00 12.35 C 7.24 g/m*3 12.35 C 7.125 km/h
136 28-04-2019 15:00:00 11.50833 C 7.58 g/m*3 11.51 C 6.56667 km/h
137 28-04-2019 16:00:00 10.375 C 8.07 g/m*3 10.11 C 5.23333 km/h
138 28-04-2019 17:00:00 11.44167 C 8.14 g/m*3 11.44 C 2.54167 km/h
139 28-04-2019 18:00:00 11.48333 C 7.7 g/m*3 11.48 C 6.73333 km/h
140 28-04-2019 19:00:00 10.86667 C 7.54 g/m*3 10.24 C 6.975 km/h
141 28-04-2019 20:00:00 9.65 C 7.37 g/m*3 9.65 C 1.475 km/h
142 28-04-2019 21:00:00 7.30833 C 6.87 g/m*3 7.31 C 0 km/h
143 28-04-2019 22:00:00 5.96667 C 6.55 g/m*3 5.97 C 0 km/h
144 28-04-2019 23:00:00 5 C 6.27 g/m*3 5 C 0 km/h
145 29-04-2019 00:00:00 4.41667 C 6.12 g/m*3 4.42 C 0 km/h
146 29-04-2019 01:00:00 4.03333 C 5.99 g/m*3 4.03 C 0 km/h
147 29-04-2019 02:00:00 3.425 C 5.8 g/m*3 3.43 C 0 km/h
148 29-04-2019 03:00:00 3.675 C 5.91 g/m*3 3.68 C 0 km/h
149 29-04-2019 04:00:00 3.54167 C 5.89 g/m*3 3.54 C 0 km/h
150 29-04-2019 05:00:00 3.35833 C 5.85 g/m*3 3.36 C 4.26667 km/h
Sensor: Nr:Datum:Temp:Abs-Feuchte:Windchill:Wind:
Aussen-T/F 151 29-04-2019 06:00:00 3.15 C 5.77 g/m*3 3.15 C 1.46667 km/h
152 29-04-2019 07:00:00 3.225 C 5.79 g/m*3 3.23 C 1.73333 km/h
153 29-04-2019 08:00:00 3.85833 C 6.07 g/m*3 3.86 C 4.26667 km/h
154 29-04-2019 09:00:00 4.99167 C 6.59 g/m*3 4.99 C 4.13333 km/h
155 29-04-2019 10:00:00 6.51667 C 7.15 g/m*3 6.52 C 2.4 km/h
156 29-04-2019 11:00:00 8.7 C 7.85 g/m*3 8.7 C 2.4 km/h
157 29-04-2019 12:00:00 11.925 C 8.18 g/m*3 11.93 C 5.48333 km/h
158 29-04-2019 13:00:00 13.975 C 7.63 g/m*3 13.98 C 9.025 km/h
159 29-04-2019 14:00:00 14.83333 C 7.25 g/m*3 14.83 C 9.69167 km/h
160 29-04-2019 15:00:00 15.29167 C 7.35 g/m*3 15.29 C 9.68333 km/h
161 29-04-2019 16:00:00 15.31667 C 7.23 g/m*3 15.32 C 11.43333 km/h
162 29-04-2019 17:00:00 15.31667 C 7.29 g/m*3 15.32 C 11.7 km/h
163 29-04-2019 18:00:00 13.69167 C 8.13 g/m*3 13.69 C 7.26667 km/h
164 29-04-2019 19:00:00 11.075 C 8.86 g/m*3 11.08 C 1.2 km/h
165 29-04-2019 20:00:00 10.25 C 8.74 g/m*3 10.25 C 0 km/h
166 29-04-2019 21:00:00 10.13333 C 8.75 g/m*3 10.13 C 0.4 km/h
167 29-04-2019 22:00:00 10.25833 C 8.76 g/m*3 10.26 C 2.675 km/h
168 29-04-2019 23:00:00 10.65833 C 8.78 g/m*3 10.66 C 1.73333 km/h

Maximal/Minimal-Werte vom 23.04.2019 - 29.04.2019

Sensor Min Max Avg
Temp
(Aussen-T/F)
3.1 °C
29-04-2019  06:30:00
26.6 °C
24-04-2019  17:05:00
11.69 °C
Abs-Feuchte
(Aussen-T/F)
5.77 g/m*3
29-04-2019  06:00:00
11.08 g/m*3
25-04-2019  17:00:00
8.06 g/m*3
Windchill
(Aussen-T/F)
3.15 C
29-04-2019  06:00:00
25.68 C
24-04-2019  17:00:00
11.52 C

Die Daten stammen von einer Davis Vantage Pro 2 Wetter-Station und werden unter Linux mit der Software wview2wettercgi und aufbereitet. Alle Angaben erfolgen ohne Gewähr für ihre Vollständigkeit oder Richtigkeit.
Kontakt: Rainer Krienke krienke@uni-koblenz.de . Meine Webseiten an der Uni Koblenz oder privat.
Version: $Revision: 0.78 $